Time;durP1;ratioP1;P1;durP2;ratioP2;P2;SDS_P1;SDS_P2;PMS_P1;PMS_P2;Temp;Humidity;BMP_temperature;BMP_pressure;BME280_temperature;BME280_humidity;BME280_pressure;Samples;Min_cycle;Max_cycle;Signal;HPM_P1;HPM_P2
2023/10/29 00:02:22;;;;;;;19.67;11.10;;;;;;;;;;5051984;28;20414;-63
2023/10/29 00:04:48;;;;;;;15.87;11.70;;;;;;;;;;5051675;28;20080;-63
2023/10/29 00:07:14;;;;;;;16.27;11.37;;;;;;;;;;5051325;28;20052;-63
2023/10/29 00:09:40;;;;;;;15.03;11.03;;;;;;;;;;5050766;28;20056;-63
2023/10/29 00:12:06;;;;;;;21.97;14.27;;;;;;;;;;5069356;28;20048;-63
2023/10/29 00:14:33;;;;;;;17.50;11.93;;;;;;;;;;5070985;28;20098;-63
2023/10/29 00:16:59;;;;;;;25.90;14.40;;;;;;;;;;5071238;28;20128;-63
2023/10/29 00:19:25;;;;;;;12.37;9.30;;;;;;;;;;5070958;28;20052;-63
2023/10/29 00:21:51;;;;;;;14.57;9.47;;;;;;;;;;5062977;28;20102;-62
2023/10/29 00:24:17;;;;;;;13.40;8.93;;;;;;;;;;5050881;28;20049;-62
2023/10/29 00:26:43;;;;;;;18.37;8.97;;;;;;;;;;5050845;28;20383;-63
2023/10/29 00:29:09;;;;;;;14.30;8.40;;;;;;;;;;5050859;28;20106;-63
2023/10/29 00:31:35;;;;;;;12.13;8.37;;;;;;;;;;5050950;28;20049;-62
2023/10/29 00:34:03;;;;;;;13.80;9.53;;;;;;;;;;5068290;28;20055;-63
2023/10/29 00:36:29;;;;;;;10.40;8.67;;;;;;;;;;5070693;28;20091;-62
2023/10/29 00:38:55;;;;;;;13.17;9.10;;;;;;;;;;5070202;28;20048;-62
2023/10/29 00:41:21;;;;;;;13.67;9.30;;;;;;;;;;5070937;28;20123;-63
2023/10/29 00:43:47;;;;;;;11.90;8.27;;;;;;;;;;5052732;28;20482;-62
2023/10/29 00:46:15;;;;;;;12.07;9.07;;;;;;;;;;5050524;28;20084;-63
2023/10/29 00:48:42;;;;;;;15.00;10.40;;;;;;;;;;5050379;28;20040;-62
2023/10/29 00:51:08;;;;;;;16.37;9.83;;;;;;;;;;5053848;28;20120;-63
2023/10/29 00:53:34;;;;;;;14.37;9.60;;;;;;;;;;5055024;28;20037;-62
2023/10/29 00:56:01;;;;;;;18.87;10.03;;;;;;;;;;5070705;28;20052;-62
2023/10/29 00:58:28;;;;;;;14.40;10.63;;;;;;;;;;5070489;28;20047;-62
2023/10/29 01:00:54;;;;;;;11.83;8.40;;;;;;;;;;5069808;28;20052;-62
2023/10/29 01:03:20;;;;;;;15.10;9.83;;;;;;;;;;5070313;28;20043;-62
2023/10/29 01:05:46;;;;;;;10.93;7.57;;;;;;;;;;5070119;28;20055;-62
2023/10/29 01:08:13;;;;;;;12.93;7.77;;;;;;;;;;5058595;28;20049;-63
2023/10/29 01:10:39;;;;;;;13.73;8.60;;;;;;;;;;5048982;28;20120;-62
2023/10/29 01:13:05;;;;;;;12.40;7.90;;;;;;;;;;5049966;28;20515;-63
2023/10/29 01:15:32;;;;;;;12.07;8.00;;;;;;;;;;5049675;28;20041;-63
2023/10/29 01:17:59;;;;;;;11.17;7.73;;;;;;;;;;5050351;28;20041;-62
2023/10/29 01:20:25;;;;;;;12.97;8.50;;;;;;;;;;5050371;28;20090;-63
2023/10/29 01:22:51;;;;;;;12.53;8.73;;;;;;;;;;5050030;28;20072;-62
2023/10/29 01:25:17;;;;;;;11.03;7.70;;;;;;;;;;5049534;28;20053;-63
2023/10/29 01:27:44;;;;;;;13.00;6.97;;;;;;;;;;5049192;28;20053;-63
2023/10/29 01:30:11;;;;;;;9.90;6.20;;;;;;;;;;5049672;28;20053;-63
2023/10/29 01:32:38;;;;;;;8.87;5.87;;;;;;;;;;5049547;28;20091;-63
2023/10/29 01:35:04;;;;;;;11.27;6.70;;;;;;;;;;5049017;28;20045;-62
2023/10/29 01:37:30;;;;;;;10.43;5.73;;;;;;;;;;5049393;28;20124;-63
2023/10/29 01:39:56;;;;;;;7.83;5.00;;;;;;;;;;5049107;28;20846;-62
2023/10/29 01:42:23;;;;;;;10.50;6.33;;;;;;;;;;5049655;28;20049;-62
2023/10/29 01:44:49;;;;;;;9.47;4.77;;;;;;;;;;5049467;28;20045;-62
2023/10/29 01:47:15;;;;;;;6.33;4.60;;;;;;;;;;5049362;28;20127;-62
2023/10/29 01:49:41;;;;;;;7.80;3.97;;;;;;;;;;5049531;28;20049;-62
2023/10/29 01:52:07;;;;;;;12.77;5.47;;;;;;;;;;5048885;28;20064;-62
2023/10/29 01:54:33;;;;;;;10.47;4.60;;;;;;;;;;5049105;28;20049;-63
2023/10/29 01:57:00;;;;;;;7.40;3.60;;;;;;;;;;5049105;28;20048;-62
2023/10/29 01:59:26;;;;;;;6.53;3.43;;;;;;;;;;5049245;28;20071;-62
2023/10/29 02:01:52;;;;;;;8.63;4.07;;;;;;;;;;5048968;28;20504;-62
2023/10/29 02:04:18;;;;;;;6.13;3.37;;;;;;;;;;5059665;28;20426;-62
2023/10/29 02:06:44;;;;;;;7.73;3.37;;;;;;;;;;5068789;28;20110;-62
2023/10/29 02:09:10;;;;;;;6.57;3.20;;;;;;;;;;5068927;28;20518;-62
2023/10/29 02:11:37;;;;;;;6.37;2.73;;;;;;;;;;5069134;28;20044;-62
2023/10/29 02:14:04;;;;;;;10.63;3.40;;;;;;;;;;5068945;28;20140;-62
2023/10/29 02:16:30;;;;;;;8.33;2.90;;;;;;;;;;5056778;28;20041;-62
2023/10/29 02:18:56;;;;;;;7.50;3.33;;;;;;;;;;5059925;28;20045;-62
2023/10/29 02:21:23;;;;;;;7.93;2.60;;;;;;;;;;5059259;28;20053;-62
2023/10/29 02:23:50;;;;;;;6.20;2.40;;;;;;;;;;5068581;28;20127;-62
2023/10/29 02:26:16;;;;;;;6.87;2.17;;;;;;;;;;5068346;28;20137;-62
2023/10/29 02:28:42;;;;;;;5.50;2.50;;;;;;;;;;5068326;28;20048;-62
2023/10/29 02:31:08;;;;;;;6.63;2.60;;;;;;;;;;5061724;28;20045;-62
2023/10/29 02:33:34;;;;;;;4.40;2.20;;;;;;;;;;5048742;28;20122;-63
2023/10/29 02:36:00;;;;;;;6.87;2.30;;;;;;;;;;5048972;28;20041;-63
2023/10/29 02:38:26;;;;;;;7.47;2.70;;;;;;;;;;5048224;28;20510;-62
2023/10/29 02:40:52;;;;;;;9.23;2.67;;;;;;;;;;5054989;28;20677;-63
2023/10/29 02:43:18;;;;;;;7.10;2.50;;;;;;;;;;5068015;28;20481;-62
2023/10/29 02:45:44;;;;;;;6.63;2.00;;;;;;;;;;5063795;28;20132;-62
2023/10/29 02:48:11;;;;;;;3.93;1.97;;;;;;;;;;5049725;28;20044;-62
2023/10/29 02:50:38;;;;;;;6.33;2.10;;;;;;;;;;5047790;28;20059;-62
2023/10/29 02:53:04;;;;;;;5.50;2.40;;;;;;;;;;5048651;28;20055;-63
2023/10/29 02:55:30;;;;;;;4.27;2.20;;;;;;;;;;5048669;28;20044;-62
2023/10/29 02:57:56;;;;;;;6.57;2.20;;;;;;;;;;5048350;28;20076;-62
2023/10/29 03:00:23;;;;;;;5.90;2.10;;;;;;;;;;5052053;28;20776;-62
2023/10/29 03:02:49;;;;;;;6.30;2.33;;;;;;;;;;5068019;28;20863;-62
2023/10/29 03:05:15;;;;;;;5.20;2.03;;;;;;;;;;5067298;28;20053;-62
2023/10/29 03:07:41;;;;;;;6.23;2.00;;;;;;;;;;5068579;28;20098;-62
2023/10/29 03:10:07;;;;;;;4.97;1.60;;;;;;;;;;5068388;28;20032;-62
2023/10/29 03:12:33;;;;;;;9.63;2.13;;;;;;;;;;5067951;28;20048;-62
2023/10/29 03:15:00;;;;;;;4.70;1.80;;;;;;;;;;5053095;28;20041;-62
2023/10/29 03:17:26;;;;;;;6.47;2.30;;;;;;;;;;5061400;28;20045;-62
2023/10/29 03:19:52;;;;;;;2.87;1.70;;;;;;;;;;5072241;28;20051;-62
2023/10/29 03:22:18;;;;;;;4.70;1.70;;;;;;;;;;5072263;28;20479;-62
2023/10/29 03:24:44;;;;;;;4.13;1.50;;;;;;;;;;5065398;28;20088;-62
2023/10/29 03:27:10;;;;;;;6.13;1.77;;;;;;;;;;5065995;28;20044;-63
2023/10/29 03:29:36;;;;;;;6.03;1.70;;;;;;;;;;5066577;28;20051;-62
2023/10/29 03:32:03;;;;;;;3.40;1.27;;;;;;;;;;5072058;28;20449;-62
2023/10/29 03:34:31;;;;;;;3.07;1.27;;;;;;;;;;5072027;28;20091;-62
2023/10/29 03:36:57;;;;;;;7.33;1.60;;;;;;;;;;5071782;28;20135;-63
2023/10/29 03:39:23;;;;;;;8.90;1.47;;;;;;;;;;5071150;28;20091;-62
2023/10/29 03:41:49;;;;;;;3.30;1.40;;;;;;;;;;5071844;28;20098;-63
2023/10/29 03:44:15;;;;;;;4.33;1.73;;;;;;;;;;5055502;28;20378;-65
2023/10/29 03:46:41;;;;;;;6.90;1.70;;;;;;;;;;5051744;28;20045;-65
2023/10/29 03:49:08;;;;;;;3.40;1.60;;;;;;;;;;5051610;28;20550;-66
2023/10/29 03:51:34;;;;;;;7.47;1.50;;;;;;;;;;5051404;28;20124;-65
2023/10/29 03:54:00;;;;;;;7.77;1.83;;;;;;;;;;5057965;28;20049;-68
2023/10/29 03:56:26;;;;;;;4.17;1.53;;;;;;;;;;5050530;28;20057;-65
2023/10/29 03:58:52;;;;;;;4.53;1.50;;;;;;;;;;5051551;28;20059;-65
2023/10/29 04:01:18;;;;;;;3.57;1.20;;;;;;;;;;5051570;28;20045;-64
2023/10/29 04:03:44;;;;;;;3.73;1.10;;;;;;;;;;5051487;28;20041;-64
2023/10/29 04:06:11;;;;;;;6.60;1.60;;;;;;;;;;5050686;28;20037;-64
2023/10/29 04:08:37;;;;;;;2.17;1.00;;;;;;;;;;5068608;28;20052;-64
2023/10/29 04:11:04;;;;;;;2.07;1.00;;;;;;;;;;5059094;28;20037;-64
2023/10/29 04:13:30;;;;;;;3.93;1.50;;;;;;;;;;5067505;28;20506;-64
2023/10/29 04:15:56;;;;;;;3.83;1.10;;;;;;;;;;5069012;28;20052;-64
2023/10/29 04:18:24;;;;;;;3.47;1.20;;;;;;;;;;5051408;28;20415;-64
2023/10/29 04:20:50;;;;;;;4.47;1.10;;;;;;;;;;5051214;28;20057;-64
2023/10/29 04:23:16;;;;;;;4.93;1.33;;;;;;;;;;5051360;28;20041;-64
2023/10/29 04:25:44;;;;;;;4.07;1.47;;;;;;;;;;5051203;28;20854;-64
2023/10/29 04:28:10;;;;;;;5.60;1.00;;;;;;;;;;5049171;28;20451;-64
2023/10/29 04:30:36;;;;;;;4.20;1.70;;;;;;;;;;5051294;28;20051;-64
2023/10/29 04:33:02;;;;;;;7.37;1.20;;;;;;;;;;5050468;28;20499;-63
2023/10/29 04:35:29;;;;;;;5.77;1.17;;;;;;;;;;5051236;28;20450;-63
2023/10/29 04:37:55;;;;;;;2.73;0.97;;;;;;;;;;5063610;28;20048;-63
2023/10/29 04:40:21;;;;;;;4.00;1.10;;;;;;;;;;5070719;28;20109;-63
2023/10/29 04:42:47;;;;;;;4.63;1.00;;;;;;;;;;5069999;28;20048;-63
2023/10/29 04:45:13;;;;;;;2.63;0.80;;;;;;;;;;5071000;28;20048;-63
2023/10/29 04:47:40;;;;;;;2.90;1.00;;;;;;;;;;5070937;28;20137;-63
2023/10/29 04:50:07;;;;;;;2.90;0.97;;;;;;;;;;5060437;28;20155;-63
2023/10/29 04:52:34;;;;;;;5.90;1.17;;;;;;;;;;5050999;28;20049;-63
2023/10/29 04:55:05;;;;;;;9.70;2.43;;;;;;;;;;5050540;28;20045;-63
2023/10/29 04:57:30;;;;;;;2.77;1.17;;;;;;;;;;5050688;28;20076;-63
2023/10/29 04:59:57;;;;;;;2.53;0.70;;;;;;;;;;5049853;28;20076;-63
2023/10/29 05:02:23;;;;;;;3.70;1.10;;;;;;;;;;5070417;28;20047;-63
2023/10/29 05:04:52;;;;;;;3.03;1.00;;;;;;;;;;5057959;28;20049;-63
2023/10/29 05:07:18;;;;;;;4.33;1.10;;;;;;;;;;5050118;28;20503;-63
2023/10/29 05:09:44;;;;;;;3.07;0.90;;;;;;;;;;5050215;28;20048;-63
2023/10/29 05:12:10;;;;;;;4.43;1.00;;;;;;;;;;5050030;28;20098;-62
2023/10/29 05:14:36;;;;;;;4.13;1.10;;;;;;;;;;5049701;28;20044;-63
2023/10/29 05:17:02;;;;;;;4.20;0.70;;;;;;;;;;5052839;28;20046;-63
2023/10/29 05:19:29;;;;;;;2.67;0.90;;;;;;;;;;5070023;28;20044;-63
2023/10/29 05:21:55;;;;;;;5.23;0.87;;;;;;;;;;5069789;28;20048;-63
2023/10/29 05:24:21;;;;;;;4.63;0.83;;;;;;;;;;5069669;28;20110;-62
2023/10/29 05:26:47;;;;;;;3.93;0.80;;;;;;;;;;5069810;28;20519;-62
2023/10/29 05:29:13;;;;;;;4.20;0.90;;;;;;;;;;5069187;28;20713;-63
2023/10/29 05:31:39;;;;;;;5.20;0.90;;;;;;;;;;5069543;28;20463;-62
2023/10/29 05:34:05;;;;;;;3.50;0.70;;;;;;;;;;5069567;28;20083;-62
2023/10/29 05:36:31;;;;;;;5.70;0.90;;;;;;;;;;5069871;28;20052;-62
2023/10/29 05:38:57;;;;;;;5.47;1.00;;;;;;;;;;5068578;28;20045;-62
2023/10/29 05:41:23;;;;;;;4.40;1.10;;;;;;;;;;5069452;28;20131;-63
2023/10/29 05:43:50;;;;;;;2.50;0.67;;;;;;;;;;5069703;28;20052;-63
2023/10/29 05:46:16;;;;;;;2.83;0.77;;;;;;;;;;5059444;28;20427;-62
2023/10/29 05:48:42;;;;;;;2.67;0.73;;;;;;;;;;5049133;28;20040;-63
2023/10/29 05:51:12;;;;;;;3.00;0.73;;;;;;;;;;5049539;28;20044;-62
2023/10/29 05:53:39;;;;;;;3.93;0.60;;;;;;;;;;5048943;28;20055;-62
2023/10/29 05:56:06;;;;;;;2.40;0.83;;;;;;;;;;5051220;28;20099;-62
2023/10/29 05:58:33;;;;;;;5.90;0.83;;;;;;;;;;5049482;28;20090;-62
2023/10/29 06:00:59;;;;;;;2.33;0.87;;;;;;;;;;5049236;28;20464;-62
2023/10/29 06:03:27;;;;;;;3.17;0.70;;;;;;;;;;5048966;28;20123;-62
2023/10/29 06:05:54;;;;;;;4.77;0.70;;;;;;;;;;5048908;28;20056;-62
2023/10/29 06:08:21;;;;;;;5.10;0.70;;;;;;;;;;5048755;28;20462;-62
2023/10/29 06:10:48;;;;;;;3.33;0.97;;;;;;;;;;5048346;28;20454;-62
2023/10/29 06:13:14;;;;;;;4.33;0.70;;;;;;;;;;5052762;28;20375;-62
2023/10/29 06:15:40;;;;;;;3.23;1.00;;;;;;;;;;5069105;28;20052;-63
2023/10/29 06:18:06;;;;;;;5.80;0.90;;;;;;;;;;5068733;28;20044;-65
2023/10/29 06:20:32;;;;;;;3.77;0.97;;;;;;;;;;5065895;28;20076;-62
2023/10/29 06:22:59;;;;;;;3.37;0.83;;;;;;;;;;5068336;28;20040;-62
2023/10/29 06:25:26;;;;;;;4.93;0.77;;;;;;;;;;5067872;28;20080;-63
2023/10/29 06:27:53;;;;;;;2.43;0.70;;;;;;;;;;5052617;28;20548;-62
2023/10/29 06:30:19;;;;;;;2.17;0.70;;;;;;;;;;5059640;28;20457;-62
2023/10/29 06:32:45;;;;;;;4.57;0.60;;;;;;;;;;5051409;28;20490;-62
2023/10/29 06:35:13;;;;;;;4.80;1.87;;;;;;;;;;5048849;28;20048;-61
2023/10/29 06:37:39;;;;;;;1.57;0.63;;;;;;;;;;5057603;28;20044;-61
2023/10/29 06:40:06;;;;;;;5.67;1.20;;;;;;;;;;5055816;28;20169;-60
2023/10/29 06:42:32;;;;;;;3.03;0.60;;;;;;;;;;5054410;28;20127;-60
2023/10/29 06:44:58;;;;;;;3.47;0.67;;;;;;;;;;5060829;28;20119;-60
2023/10/29 06:47:24;;;;;;;2.97;0.80;;;;;;;;;;5057113;28;20044;-60
2023/10/29 06:49:50;;;;;;;2.20;0.50;;;;;;;;;;5055770;28;20385;-60
2023/10/29 06:52:17;;;;;;;4.20;1.20;;;;;;;;;;5058362;28;20403;-60
2023/10/29 06:54:43;;;;;;;3.57;0.90;;;;;;;;;;5057212;28;20037;-61
2023/10/29 06:57:09;;;;;;;4.70;0.97;;;;;;;;;;5061217;28;20037;-60
2023/10/29 06:59:35;;;;;;;3.17;0.83;;;;;;;;;;5055553;28;20124;-60
2023/10/29 07:02:01;;;;;;;3.53;1.10;;;;;;;;;;5052922;28;20186;-60
2023/10/29 07:04:27;;;;;;;3.93;0.90;;;;;;;;;;5055347;28;20067;-60
2023/10/29 07:06:53;;;;;;;4.50;0.80;;;;;;;;;;5051322;28;20488;-60
2023/10/29 07:09:19;;;;;;;5.80;0.80;;;;;;;;;;5056753;28;20047;-60
2023/10/29 07:11:45;;;;;;;7.57;0.90;;;;;;;;;;5059703;28;20516;-60
2023/10/29 07:14:12;;;;;;;3.80;0.50;;;;;;;;;;5052784;28;20120;-60
2023/10/29 07:16:47;;;;;;;3.33;0.80;;;;;;;;;;5050678;28;20076;-60
2023/10/29 07:19:14;;;;;;;6.43;1.03;;;;;;;;;;5054348;28;20041;-60
2023/10/29 07:21:40;;;;;;;4.60;0.90;;;;;;;;;;5055698;28;20040;-60
2023/10/29 07:24:09;;;;;;;4.70;0.87;;;;;;;;;;5057903;28;20049;-61
2023/10/29 07:26:35;;;;;;;5.97;1.47;;;;;;;;;;5055876;28;20045;-60
2023/10/29 07:29:01;;;;;;;4.30;1.00;;;;;;;;;;5054789;28;20045;-60
2023/10/29 07:31:27;;;;;;;2.87;0.80;;;;;;;;;;5057342;28;20517;-60
2023/10/29 07:33:53;;;;;;;4.03;1.07;;;;;;;;;;5061191;28;20608;-60
2023/10/29 07:36:20;;;;;;;3.80;0.80;;;;;;;;;;5057205;28;20033;-60
2023/10/29 07:38:47;;;;;;;5.90;0.97;;;;;;;;;;5054992;28;20061;-61
2023/10/29 07:41:18;;;;;;;4.23;0.80;;;;;;;;;;5059849;28;20052;-61
2023/10/29 07:43:44;;;;;;;4.43;0.90;;;;;;;;;;5052346;28;20041;-61
2023/10/29 07:46:10;;;;;;;8.53;0.90;;;;;;;;;;5057675;28;20076;-61
2023/10/29 07:48:36;;;;;;;6.23;1.10;;;;;;;;;;5058445;28;20061;-61
2023/10/29 07:51:02;;;;;;;6.77;1.10;;;;;;;;;;5057038;28;20040;-61
2023/10/29 07:53:30;;;;;;;7.00;1.33;;;;;;;;;;5054941;28;20098;-61
2023/10/29 07:56:06;;;;;;;4.03;1.00;;;;;;;;;;5057570;28;20040;-61
2023/10/29 07:58:31;;;;;;;7.20;1.43;;;;;;;;;;5057537;28;20422;-61
2023/10/29 08:00:57;;;;;;;4.43;0.97;;;;;;;;;;5054717;28;20045;-61
2023/10/29 08:03:23;;;;;;;9.17;1.23;;;;;;;;;;5059847;28;20120;-61
2023/10/29 08:05:53;;;;;;;5.40;1.23;;;;;;;;;;5061543;28;20048;-61
2023/10/29 08:08:19;;;;;;;6.00;0.87;;;;;;;;;;5055304;28;20052;-61
2023/10/29 08:10:45;;;;;;;4.17;1.33;;;;;;;;;;5059473;28;20806;-62
2023/10/29 08:13:11;;;;;;;4.03;1.10;;;;;;;;;;5057891;28;20041;-61
2023/10/29 08:15:37;;;;;;;10.20;0.90;;;;;;;;;;5058110;28;21775;-61
2023/10/29 08:18:04;;;;;;;6.37;1.23;;;;;;;;;;5063085;28;20047;-61
2023/10/29 08:20:30;;;;;;;5.33;0.90;;;;;;;;;;5060417;28;20543;-61
2023/10/29 08:22:56;;;;;;;3.80;1.03;;;;;;;;;;5061792;28;20047;-61
2023/10/29 08:25:22;;;;;;;9.17;1.47;;;;;;;;;;5059674;28;20221;-61
2023/10/29 08:27:47;;;;;;;8.53;1.10;;;;;;;;;;5063869;28;20056;-61
2023/10/29 08:30:14;;;;;;;9.47;0.90;;;;;;;;;;5059076;28;20447;-61
2023/10/29 08:32:40;;;;;;;4.53;0.80;;;;;;;;;;5059025;28;20056;-62
2023/10/29 08:35:09;;;;;;;3.83;0.80;;;;;;;;;;5057854;28;20210;-61
2023/10/29 08:37:35;;;;;;;6.43;0.90;;;;;;;;;;5054796;28;20892;-62
2023/10/29 08:40:01;;;;;;;4.83;1.07;;;;;;;;;;5063611;28;20045;-61
2023/10/29 08:42:28;;;;;;;5.87;1.07;;;;;;;;;;5061341;28;21443;-61
2023/10/29 08:44:57;;;;;;;3.97;0.80;;;;;;;;;;5057520;28;20124;-61
2023/10/29 08:47:23;;;;;;;6.93;1.10;;;;;;;;;;5059330;28;20048;-62
2023/10/29 08:49:50;;;;;;;4.73;1.10;;;;;;;;;;5061415;28;20483;-62
2023/10/29 08:52:17;;;;;;;5.90;1.20;;;;;;;;;;5061789;28;20080;-61
2023/10/29 08:54:43;;;;;;;5.67;1.13;;;;;;;;;;5059604;28;20041;-62
2023/10/29 08:57:09;;;;;;;11.73;1.20;;;;;;;;;;5058344;28;20048;-61
2023/10/29 08:59:35;;;;;;;7.17;1.03;;;;;;;;;;5060718;28;20049;-61
2023/10/29 09:02:01;;;;;;;3.77;0.90;;;;;;;;;;5059283;28;20078;-61
2023/10/29 09:04:27;;;;;;;5.63;1.07;;;;;;;;;;5058318;28;20133;-61
2023/10/29 09:06:53;;;;;;;4.33;1.10;;;;;;;;;;5058769;28;20518;-62
2023/10/29 09:09:20;;;;;;;7.43;1.33;;;;;;;;;;5062053;28;20041;-62
2023/10/29 09:11:46;;;;;;;7.43;1.50;;;;;;;;;;5055884;28;20170;-62
2023/10/29 09:14:13;;;;;;;3.10;0.80;;;;;;;;;;5055886;28;20106;-62
2023/10/29 09:16:39;;;;;;;5.60;1.20;;;;;;;;;;5060362;28;20048;-62
2023/10/29 09:19:06;;;;;;;6.37;1.00;;;;;;;;;;5060777;28;20048;-62
2023/10/29 09:21:32;;;;;;;5.10;1.13;;;;;;;;;;5063149;28;20135;-62
2023/10/29 09:23:58;;;;;;;5.60;1.33;;;;;;;;;;5059462;28;20593;-61
2023/10/29 09:26:24;;;;;;;5.47;1.60;;;;;;;;;;5057118;28;20044;-62
2023/10/29 09:28:50;;;;;;;6.17;1.30;;;;;;;;;;5059310;28;20032;-62
2023/10/29 09:31:16;;;;;;;10.30;1.90;;;;;;;;;;5060525;28;20799;-61
2023/10/29 09:33:43;;;;;;;8.47;1.20;;;;;;;;;;5059000;28;20036;-62
2023/10/29 09:36:09;;;;;;;7.83;1.57;;;;;;;;;;5063445;28;20491;-62
2023/10/29 09:38:35;;;;;;;7.00;1.17;;;;;;;;;;5062621;28;20108;-62
2023/10/29 09:41:01;;;;;;;6.73;1.33;;;;;;;;;;5056684;28;20079;-62
2023/10/29 09:43:30;;;;;;;9.90;1.50;;;;;;;;;;5059637;28;20067;-62
2023/10/29 09:45:57;;;;;;;9.53;2.07;;;;;;;;;;5058668;28;20927;-62
2023/10/29 09:48:23;;;;;;;7.83;1.37;;;;;;;;;;5056104;28;20045;-62
2023/10/29 09:50:49;;;;;;;5.90;1.30;;;;;;;;;;5059571;28;20052;-62
2023/10/29 09:53:16;;;;;;;9.27;1.53;;;;;;;;;;5051755;28;20488;-62
2023/10/29 09:55:42;;;;;;;4.30;1.37;;;;;;;;;;5053923;28;20138;-62
2023/10/29 09:58:09;;;;;;;8.90;1.33;;;;;;;;;;5055117;28;20040;-62
2023/10/29 10:00:36;;;;;;;5.63;1.63;;;;;;;;;;5060243;28;20044;-62
2023/10/29 10:03:02;;;;;;;7.33;1.60;;;;;;;;;;5055971;28;20162;-61
2023/10/29 10:05:29;;;;;;;9.50;1.60;;;;;;;;;;5056885;28;20079;-62
2023/10/29 10:07:55;;;;;;;8.33;1.60;;;;;;;;;;5056168;28;20509;-62
2023/10/29 10:10:21;;;;;;;9.83;2.00;;;;;;;;;;5059214;28;20040;-62
2023/10/29 10:12:48;;;;;;;6.40;2.03;;;;;;;;;;5054940;28;20581;-62
2023/10/29 10:15:14;;;;;;;6.93;1.50;;;;;;;;;;5056467;28;20046;-62
2023/10/29 10:17:45;;;;;;;9.23;1.50;;;;;;;;;;5059151;28;20048;-62
2023/10/29 10:20:11;;;;;;;9.77;1.97;;;;;;;;;;5055748;28;20056;-62
2023/10/29 10:22:37;;;;;;;7.97;2.13;;;;;;;;;;5052739;28;20380;-62
2023/10/29 10:25:04;;;;;;;7.60;1.50;;;;;;;;;;5054996;28;20033;-62
2023/10/29 10:27:30;;;;;;;7.37;1.67;;;;;;;;;;5056096;28;20045;-62
2023/10/29 10:29:56;;;;;;;7.97;1.53;;;;;;;;;;5057993;28;20040;-62
2023/10/29 10:32:25;;;;;;;7.23;1.47;;;;;;;;;;5053032;28;20402;-62
2023/10/29 10:34:51;;;;;;;5.83;1.20;;;;;;;;;;5057252;28;20053;-62
2023/10/29 10:37:17;;;;;;;10.90;2.07;;;;;;;;;;5056843;28;20522;-62
2023/10/29 10:39:43;;;;;;;11.77;2.10;;;;;;;;;;5057760;28;20048;-62
2023/10/29 10:42:09;;;;;;;8.47;1.77;;;;;;;;;;5059620;28;20123;-62
2023/10/29 10:44:36;;;;;;;10.87;1.93;;;;;;;;;;5059661;28;20048;-62
2023/10/29 10:47:03;;;;;;;9.53;2.43;;;;;;;;;;5056966;28;20047;-62
2023/10/29 10:49:34;;;;;;;9.03;1.73;;;;;;;;;;5055367;28;20055;-62
2023/10/29 10:52:02;;;;;;;8.47;1.60;;;;;;;;;;5058286;28;20044;-62
2023/10/29 10:54:29;;;;;;;10.83;1.70;;;;;;;;;;5060347;28;20097;-62
2023/10/29 10:56:56;;;;;;;8.73;2.00;;;;;;;;;;5059825;28;20121;-61
2023/10/29 10:59:22;;;;;;;9.63;2.10;;;;;;;;;;5058001;28;20040;-62
2023/10/29 11:01:48;;;;;;;7.63;1.77;;;;;;;;;;5059995;28;20041;-62
2023/10/29 11:04:15;;;;;;;9.73;1.57;;;;;;;;;;5053951;28;20033;-61
2023/10/29 11:06:41;;;;;;;5.60;1.60;;;;;;;;;;5055648;28;20111;-62
2023/10/29 11:09:17;;;;;;;5.73;1.30;;;;;;;;;;5056623;28;20496;-61
2023/10/29 11:11:43;;;;;;;8.37;1.73;;;;;;;;;;5054599;28;20048;-62
2023/10/29 11:14:10;;;;;;;9.27;2.20;;;;;;;;;;5060511;28;20481;-61
2023/10/29 11:16:45;;;;;;;10.47;1.67;;;;;;;;;;5055979;28;20045;-61
2023/10/29 11:19:30;;;;;;;8.97;1.30;;;;;;;;;;5051837;28;20040;-62
2023/10/29 11:22:31;;;;;;;5.27;1.50;;;;;;;;;;5057166;28;20090;-61
2023/10/29 11:25:10;;;;;;;6.87;1.43;;;;;;;;;;5033899;28;20049;-61
2023/10/29 11:27:40;;;;;;;14.60;2.10;;;;;;;;;;5054536;28;20052;-61
2023/10/29 11:30:22;;;;;;;8.93;1.37;;;;;;;;;;5055571;28;20049;-61
2023/10/29 11:33:06;;;;;;;8.40;1.80;;;;;;;;;;5045287;28;20049;-61
2023/10/29 11:35:33;;;;;;;8.47;1.43;;;;;;;;;;5046306;28;20044;-61
2023/10/29 11:38:00;;;;;;;5.20;1.17;;;;;;;;;;5047704;28;20045;-61
2023/10/29 11:40:26;;;;;;;9.53;1.47;;;;;;;;;;5049178;28;20045;-61
2023/10/29 11:42:57;;;;;;;6.63;1.53;;;;;;;;;;5060867;28;20064;-61
2023/10/29 11:45:29;;;;;;;7.57;1.60;;;;;;;;;;5065622;28;20525;-61
2023/10/29 11:48:10;;;;;;;5.73;2.17;;;;;;;;;;5060423;28;20551;-61
2023/10/29 11:50:42;;;;;;;7.50;1.63;;;;;;;;;;5062631;28;20092;-61
2023/10/29 11:53:26;;;;;;;7.25;1.48;;;;;;;;;;5057605;28;20503;-60
2023/10/29 11:55:52;;;;;;;8.10;2.07;;;;;;;;;;5058809;28;20564;-61
2023/10/29 11:58:24;;;;;;;8.10;1.57;;;;;;;;;;5062098;28;20044;-61
2023/10/29 12:00:51;;;;;;;5.73;1.53;;;;;;;;;;5058881;28;20036;-61
2023/10/29 12:03:21;;;;;;;5.57;1.70;;;;;;;;;;5060587;28;20761;-61
2023/10/29 12:05:48;;;;;;;8.90;1.67;;;;;;;;;;5060630;28;20037;-61
2023/10/29 12:08:14;;;;;;;6.63;1.50;;;;;;;;;;5061753;28;20710;-61
2023/10/29 12:10:46;;;;;;;7.53;1.40;;;;;;;;;;5061997;28;20040;-61
2023/10/29 12:13:12;;;;;;;6.20;1.07;;;;;;;;;;5063597;28;20044;-61
2023/10/29 12:15:39;;;;;;;6.53;1.47;;;;;;;;;;5059075;28;20037;-61
2023/10/29 12:18:05;;;;;;;8.23;1.50;;;;;;;;;;5058660;28;20094;-61
2023/10/29 12:20:31;;;;;;;8.93;2.37;;;;;;;;;;5060158;28;20044;-61
2023/10/29 12:22:57;;;;;;;7.17;1.70;;;;;;;;;;5060100;28;20037;-60
2023/10/29 12:25:24;;;;;;;9.03;1.90;;;;;;;;;;5059694;28;20041;-61
2023/10/29 12:27:50;;;;;;;7.70;1.53;;;;;;;;;;5057639;28;20419;-61
2023/10/29 12:30:35;;;;;;;12.40;1.57;;;;;;;;;;5059361;28;20059;-61
2023/10/29 12:33:20;;;;;;;9.77;2.30;;;;;;;;;;5057997;28;20041;-61
2023/10/29 12:35:50;;;;;;;9.53;2.10;;;;;;;;;;5063433;28;20537;-61
2023/10/29 12:38:17;;;;;;;8.87;2.47;;;;;;;;;;5060370;28;20185;-60
2023/10/29 12:41:03;;;;;;;8.83;1.70;;;;;;;;;;5062627;28;20133;-60
2023/10/29 12:43:48;;;;;;;7.07;1.70;;;;;;;;;;5060219;28;20687;-60
2023/10/29 12:46:18;;;;;;;10.20;2.03;;;;;;;;;;5059608;28;20067;-60
2023/10/29 12:48:57;;;;;;;8.63;2.13;;;;;;;;;;5055131;28;20048;-61
2023/10/29 12:51:24;;;;;;;11.07;1.57;;;;;;;;;;5060035;28;20072;-61
2023/10/29 12:53:50;;;;;;;8.80;2.10;;;;;;;;;;5058011;28;20517;-60
2023/10/29 12:56:17;;;;;;;10.07;1.90;;;;;;;;;;5059096;28;20053;-61
2023/10/29 12:58:42;;;;;;;15.30;2.13;;;;;;;;;;5056482;28;20127;-60
2023/10/29 13:01:08;;;;;;;11.40;1.90;;;;;;;;;;5055015;28;20151;-61
2023/10/29 13:03:34;;;;;;;10.73;2.10;;;;;;;;;;5058679;28;20037;-60
2023/10/29 13:06:00;;;;;;;14.17;1.70;;;;;;;;;;5056882;28;20075;-61
2023/10/29 13:08:26;;;;;;;6.77;1.40;;;;;;;;;;5057372;28;20083;-60
2023/10/29 13:10:52;;;;;;;9.97;1.57;;;;;;;;;;5058788;28;20045;-60
2023/10/29 13:13:19;;;;;;;10.13;1.47;;;;;;;;;;5055152;28;20044;-61
2023/10/29 13:15:45;;;;;;;9.17;2.13;;;;;;;;;;5056221;28;20129;-61
2023/10/29 13:18:11;;;;;;;5.60;1.70;;;;;;;;;;5063501;28;20037;-60
2023/10/29 13:20:38;;;;;;;8.17;1.60;;;;;;;;;;5059228;28;20497;-60
2023/10/29 13:23:04;;;;;;;8.63;1.73;;;;;;;;;;5055652;28;20087;-60
2023/10/29 13:25:30;;;;;;;7.90;1.63;;;;;;;;;;5057230;28;20075;-61
2023/10/29 13:27:56;;;;;;;9.50;1.80;;;;;;;;;;5056772;28;20067;-61
2023/10/29 13:30:22;;;;;;;9.17;2.03;;;;;;;;;;5061351;28;20032;-61
2023/10/29 13:32:48;;;;;;;14.17;2.03;;;;;;;;;;5061651;28;20041;-61
2023/10/29 13:35:16;;;;;;;12.37;2.10;;;;;;;;;;5059564;28;20047;-61
2023/10/29 13:37:43;;;;;;;7.73;1.70;;;;;;;;;;5057918;28;20053;-60
2023/10/29 13:40:09;;;;;;;11.13;1.80;;;;;;;;;;5056280;28;20057;-60
2023/10/29 13:42:35;;;;;;;8.20;1.50;;;;;;;;;;5054184;28;20361;-60
2023/10/29 13:45:01;;;;;;;10.07;1.67;;;;;;;;;;5058116;28;20156;-60
2023/10/29 13:47:27;;;;;;;12.23;2.20;;;;;;;;;;5059946;28;20086;-60
2023/10/29 13:49:53;;;;;;;8.20;1.60;;;;;;;;;;5056042;28;20450;-61
2023/10/29 13:52:19;;;;;;;8.00;2.27;;;;;;;;;;5055278;28;20055;-60
2023/10/29 13:54:45;;;;;;;10.90;1.70;;;;;;;;;;5063952;28;20069;-60
2023/10/29 13:57:11;;;;;;;9.80;1.83;;;;;;;;;;5062269;28;20439;-61
2023/10/29 13:59:37;;;;;;;10.63;1.90;;;;;;;;;;5057425;28;20101;-60
2023/10/29 14:02:03;;;;;;;13.40;2.50;;;;;;;;;;5064631;28;20047;-60
2023/10/29 14:04:29;;;;;;;6.37;1.47;;;;;;;;;;5048662;28;20094;-60
2023/10/29 14:06:55;;;;;;;4.67;1.40;;;;;;;;;;5048363;28;20060;-60
2023/10/29 14:09:24;;;;;;;10.40;1.70;;;;;;;;;;5049176;28;20048;-60
2023/10/29 14:11:50;;;;;;;10.93;2.00;;;;;;;;;;5048024;28;20076;-60
2023/10/29 14:14:16;;;;;;;9.27;2.10;;;;;;;;;;5048417;28;20472;-60
2023/10/29 14:16:42;;;;;;;8.90;1.83;;;;;;;;;;5048829;28;20041;-60
2023/10/29 14:19:09;;;;;;;11.37;2.00;;;;;;;;;;5047855;28;20072;-60
2023/10/29 14:21:35;;;;;;;7.63;1.67;;;;;;;;;;5048758;28;20075;-60
2023/10/29 14:24:03;;;;;;;7.47;1.97;;;;;;;;;;5048885;28;20469;-60
2023/10/29 14:26:29;;;;;;;12.97;2.73;;;;;;;;;;5048724;28;20570;-60
2023/10/29 14:28:55;;;;;;;10.73;2.10;;;;;;;;;;5065826;28;20495;-60
2023/10/29 14:31:21;;;;;;;9.53;2.23;;;;;;;;;;5066373;28;20114;-60
2023/10/29 14:33:49;;;;;;;13.13;2.27;;;;;;;;;;5068030;28;20098;-60
2023/10/29 14:36:19;;;;;;;9.03;1.70;;;;;;;;;;5068029;28;20107;-60
2023/10/29 14:38:45;;;;;;;9.57;2.00;;;;;;;;;;5064236;28;20088;-60
2023/10/29 14:41:15;;;;;;;8.67;2.50;;;;;;;;;;5067864;28;20419;-60